Grantley Adams, Barbados

11:51 PM AST on February 09, 2016 (GMT -0400)
Hopefield Plantation | | Change Station
CLOSE
Current Station
Personal Weather Station
Location: Saint Philip, SAINT PHILIP
Elevation: 236 ft
Nearby Weather Stations

Elev 236 ft 13.09 °N, 59.49 °W | Updated 6 seconds ago

Scattered Clouds
Scattered Clouds
78.4 °F
Feels Like 80 °F
N
13.6
Wind Variable Wind from ENE
Gusts 17.5 mph

Today
High -- | Low -- °F
--% Chance of Precip.
Yesterday
High -- | Low -- °F
Precip. -- in
Pressure 30.04 in
Visibility 6.2 miles
Clouds Scattered Clouds 1800 ft
Heat Index 80 °F
Dew Point 66 °F
Humidity 65%
Rainfall 0.00 in
Snow Depth Not available.
6:22 AM 6:01 PM
Waxing Crescent, 3% visible
METAR TBPB 100300Z 09018KT 9999 SCT018 26/22 Q1017 RESH NOSIG
Pressure 30.04 in
Visibility 6.2 miles
Clouds Scattered Clouds 1800 ft
Heat Index 80 °F
Dew Point 66 °F
Humidity 65%
Rainfall 0.00 in
Snow Depth Not available.
6:22 AM 6:01 PM
Waxing Crescent, 3% visible
METAR TBPB 100300Z 09018KT 9999 SCT018 26/22 Q1017 RESH NOSIG

10-Day Weather Forecast

No radar image for this location.
×

Almanac

Astronomy

Feb. 09, 2016 Rise Set
Actual Time
Civil Twilight
Nautical Twilight
Astronomical Twilight
Moon
Length of Visible Light
Length of Day
Tomorrow will be .
, % of the Moon is Illuminated

Today's Extremes

Country Highs Country Lows

Community

WunderPhotos

Upload Photos

1,891,792 photos uploaded!

WunderBlog® & News

Nearby

Air Quality

  Air Quality AQ Index Pollutant
Not available.

Snow Depth

Station Depth Elevation

Earthquake Activity

City Distance Mag. Time & Date
Minimum magnitude displayed is 2.5.

Coastal Water Temperatures

Place Temperature

Stations

Nearby Weather Stations

Station Location Temp. Windchill Dew Point Humidity Wind Precip. Elev Updated Type